createdAt,value
2019-02-18T00:00:23.948Z,99.90
2019-02-18T00:02:52.357Z,99.90
2019-02-18T00:05:20.759Z,99.90
2019-02-18T00:07:49.175Z,99.90
2019-02-18T00:10:17.584Z,99.90
2019-02-18T00:12:45.977Z,99.90
2019-02-18T00:15:14.760Z,99.90
2019-02-18T00:17:43.180Z,99.90
2019-02-18T00:20:11.588Z,99.90
2019-02-18T00:22:40.000Z,99.90
2019-02-18T00:25:08.387Z,99.90
2019-02-18T00:27:36.799Z,99.90
2019-02-18T00:30:07.054Z,99.90
2019-02-18T00:32:35.471Z,99.90
2019-02-18T00:35:04.194Z,99.90
2019-02-18T00:37:32.615Z,99.90
2019-02-18T00:40:01.030Z,99.90
2019-02-18T00:42:29.502Z,99.90
2019-02-18T00:44:57.923Z,99.90
2019-02-18T00:47:26.335Z,99.90
2019-02-18T00:49:54.739Z,99.90
2019-02-18T00:52:23.159Z,99.90
2019-02-18T00:54:51.551Z,99.90
2019-02-18T00:57:19.953Z,99.90
2019-02-18T00:59:48.371Z,99.90
2019-02-18T01:02:16.802Z,99.90
2019-02-18T01:04:45.207Z,99.90
2019-02-18T01:07:13.693Z,99.90
2019-02-18T01:09:42.091Z,99.90
2019-02-18T01:12:10.499Z,99.90
2019-02-18T01:14:38.968Z,99.90
2019-02-18T01:17:07.387Z,99.90
2019-02-18T01:19:35.791Z,99.90
2019-02-18T01:22:04.203Z,99.90
2019-02-18T01:24:32.594Z,99.90
2019-02-18T01:27:01.011Z,99.90
2019-02-18T01:29:29.400Z,99.90
2019-02-18T01:31:57.812Z,99.90
2019-02-18T01:34:26.222Z,99.90
2019-02-18T01:36:54.636Z,99.90
2019-02-18T01:39:23.277Z,99.90
2019-02-18T01:41:51.673Z,99.90
2019-02-18T01:44:20.097Z,99.90
2019-02-18T01:46:48.499Z,99.90
2019-02-18T01:49:16.903Z,99.90
2019-02-18T01:51:45.307Z,99.90
2019-02-18T01:54:13.721Z,99.90
2019-02-18T01:56:42.124Z,99.90
2019-02-18T01:59:10.521Z,99.90
2019-02-18T02:01:38.927Z,99.90
2019-02-18T02:04:07.346Z,99.90
2019-02-18T02:06:35.743Z,99.90
2019-02-18T02:09:08.025Z,99.90
2019-02-18T02:11:36.421Z,99.90
2019-02-18T02:14:04.843Z,99.90
2019-02-18T02:16:33.250Z,99.90
2019-02-18T02:19:01.672Z,99.90
2019-02-18T02:21:30.074Z,99.90
2019-02-18T02:23:58.472Z,99.90
2019-02-18T02:26:26.881Z,99.90
2019-02-18T02:28:55.278Z,99.90
2019-02-18T02:31:23.690Z,99.90
2019-02-18T02:33:52.099Z,99.90
2019-02-18T02:36:20.520Z,99.90
2019-02-18T02:38:48.938Z,99.90
2019-02-18T02:41:17.352Z,99.90
2019-02-18T02:43:45.771Z,99.90
2019-02-18T02:46:14.178Z,99.90
2019-02-18T02:48:42.601Z,99.90
2019-02-18T02:51:10.995Z,99.90
2019-02-18T02:53:39.420Z,99.90
2019-02-18T02:56:07.807Z,99.90
2019-02-18T02:58:36.228Z,99.90
2019-02-18T03:01:04.695Z,99.90
2019-02-18T03:03:33.093Z,99.90
2019-02-18T03:06:01.492Z,99.90
2019-02-18T03:08:29.929Z,99.90
2019-02-18T03:10:58.336Z,99.90
2019-02-18T03:13:26.755Z,99.90
2019-02-18T03:15:55.157Z,99.90
2019-02-18T03:18:23.570Z,99.90
2019-02-18T03:20:52.001Z,99.90
2019-02-18T03:23:20.389Z,99.90
2019-02-18T03:25:49.634Z,99.90
2019-02-18T03:28:23.666Z,99.90
2019-02-18T03:31:01.510Z,99.90
2019-02-18T03:33:35.573Z,99.90
2019-02-18T03:36:03.973Z,99.90
2019-02-18T03:38:32.371Z,99.90
2019-02-18T03:41:03.406Z,99.90
2019-02-18T03:43:30.919Z,99.90
2019-02-18T03:45:59.350Z,99.90
2019-02-18T03:48:27.733Z,99.90
2019-02-18T03:50:56.139Z,99.90
2019-02-18T03:53:24.613Z,99.90
2019-02-18T03:55:53.078Z,99.90
2019-02-18T03:58:21.778Z,99.90
2019-02-18T04:00:50.615Z,99.90
2019-02-18T04:03:19.142Z,99.90
2019-02-18T04:05:47.582Z,99.90
2019-02-18T04:08:15.983Z,99.90
2019-02-18T04:10:44.400Z,99.90
2019-02-18T04:13:12.871Z,99.90
2019-02-18T04:15:41.354Z,99.90
2019-02-18T04:18:09.765Z,99.90
2019-02-18T04:20:38.157Z,99.90
2019-02-18T04:23:06.610Z,99.90
2019-02-18T04:25:35.027Z,99.90
2019-02-18T04:28:03.437Z,99.90
2019-02-18T04:30:31.852Z,99.90
2019-02-18T04:33:00.255Z,99.90
2019-02-18T04:35:28.659Z,99.90
2019-02-18T04:37:57.080Z,99.90
2019-02-18T04:40:25.484Z,99.90
2019-02-18T04:42:53.912Z,99.90
2019-02-18T04:45:22.308Z,99.90
2019-02-18T04:47:50.713Z,99.90
2019-02-18T04:50:19.109Z,99.90
2019-02-18T04:52:47.568Z,99.90
2019-02-18T04:55:15.959Z,99.90
2019-02-18T04:57:44.614Z,99.90
2019-02-18T05:00:13.015Z,99.90
2019-02-18T05:02:41.452Z,99.90
2019-02-18T05:05:10.461Z,99.90
2019-02-18T05:07:38.884Z,99.90
2019-02-18T05:10:12.324Z,99.90
2019-02-18T05:12:40.741Z,99.90
2019-02-18T05:15:09.583Z,99.90
2019-02-18T05:17:37.998Z,99.90
2019-02-18T05:20:07.748Z,99.90
2019-02-18T05:22:36.171Z,99.90
2019-02-18T05:25:09.279Z,99.90
2019-02-18T05:27:37.729Z,99.90
2019-02-18T05:30:09.124Z,99.90
2019-02-18T05:32:37.534Z,99.90
2019-02-18T05:35:07.290Z,99.90
2019-02-18T05:37:35.716Z,99.90
2019-02-18T05:40:05.764Z,99.90
2019-02-18T05:42:34.183Z,99.90
2019-02-18T05:45:02.772Z,99.90
2019-02-18T05:47:31.192Z,99.90
2019-02-18T05:49:59.601Z,99.90
2019-02-18T05:52:28.019Z,99.90
2019-02-18T05:54:56.454Z,99.90
2019-02-18T05:57:24.888Z,99.90
2019-02-18T05:59:53.281Z,99.90
2019-02-18T06:02:22.297Z,99.90
2019-02-18T06:04:51.025Z,99.90
2019-02-18T06:07:19.450Z,99.90
2019-02-18T06:09:47.856Z,99.90
2019-02-18T06:12:16.287Z,99.90
2019-02-18T06:14:44.710Z,99.90
2019-02-18T06:17:13.139Z,99.90
2019-02-18T06:19:41.552Z,99.90
2019-02-18T06:22:09.983Z,99.90
2019-02-18T06:24:38.399Z,99.90
2019-02-18T06:27:06.821Z,99.90
2019-02-18T06:29:35.236Z,99.90
2019-02-18T06:32:03.650Z,99.90
2019-02-18T06:34:32.056Z,99.90
2019-02-18T06:37:00.477Z,99.90
2019-02-18T06:39:40.215Z,99.90
2019-02-18T06:41:59.026Z,99.90
2019-02-18T06:44:29.095Z,99.90
2019-02-18T06:46:59.159Z,99.90
2019-02-18T06:49:27.585Z,99.90
2019-02-18T06:51:55.994Z,99.90
2019-02-18T06:54:24.406Z,99.90
2019-02-18T06:59:54.500Z,99.90
2019-02-18T07:02:30.561Z,99.90
2019-02-18T07:05:09.629Z,99.90
2019-02-18T07:07:45.684Z,99.90
2019-02-18T07:10:15.719Z,99.90
2019-02-18T07:12:45.907Z,99.90
2019-02-18T07:15:14.307Z,99.90
2019-02-18T07:17:42.728Z,99.90
2019-02-18T07:20:11.189Z,99.90
2019-02-18T07:22:39.674Z,99.90
2019-02-18T07:25:08.946Z,99.90
2019-02-18T07:27:37.347Z,99.90
2019-02-18T07:30:09.173Z,99.90
2019-02-18T07:32:37.576Z,99.90
2019-02-18T07:35:06.249Z,99.90
2019-02-18T07:37:34.721Z,99.90
2019-02-18T07:40:03.603Z,99.90
2019-02-18T07:42:32.019Z,99.90
2019-02-18T07:45:00.438Z,99.90
2019-02-18T07:47:28.843Z,99.90
2019-02-18T07:49:57.258Z,99.90
2019-02-18T07:52:25.678Z,99.90
2019-02-18T07:54:54.073Z,99.90
2019-02-18T07:57:22.476Z,99.90
2019-02-18T07:59:50.895Z,99.90
2019-02-18T08:02:19.368Z,99.90
2019-02-18T08:04:47.789Z,99.90
2019-02-18T08:07:16.204Z,99.90
2019-02-18T08:09:44.677Z,99.90
2019-02-18T08:12:13.089Z,99.90
2019-02-18T08:14:41.486Z,99.90
2019-02-18T08:17:09.884Z,99.90
2019-02-18T08:19:38.307Z,99.90
2019-02-18T08:22:06.712Z,99.90
2019-02-18T08:24:35.114Z,99.90
2019-02-18T08:27:03.519Z,99.90
2019-02-18T08:29:31.922Z,99.90
2019-02-18T08:32:00.319Z,99.90
2019-02-18T08:34:28.732Z,99.90
2019-02-18T08:36:57.137Z,99.90
2019-02-18T08:39:25.899Z,99.80
2019-02-18T08:41:54.315Z,99.60
2019-02-18T08:44:22.736Z,98.60
2019-02-18T08:46:51.135Z,98.10
2019-02-18T08:49:19.596Z,97.50
2019-02-18T08:51:48.049Z,95.80
2019-02-18T08:54:16.465Z,94.40
2019-02-18T08:56:44.868Z,93.90
2019-02-18T08:59:13.269Z,93.60
2019-02-18T09:01:41.665Z,93.30
2019-02-18T09:04:10.083Z,93.20
2019-02-18T09:06:38.488Z,92.80
2019-02-18T09:09:07.067Z,92.40
2019-02-18T09:11:36.310Z,92.00
2019-02-18T09:14:04.810Z,92.00
2019-02-18T09:16:33.193Z,91.80
2019-02-18T09:19:01.606Z,91.80
2019-02-18T09:21:31.785Z,91.20
2019-02-18T09:24:01.845Z,91.00
2019-02-18T09:26:30.264Z,90.60
2019-02-18T09:28:58.674Z,90.20
2019-02-18T09:31:28.544Z,89.00
2019-02-18T09:33:56.945Z,88.30
2019-02-18T09:36:25.368Z,87.10
2019-02-18T09:38:53.768Z,86.90
2019-02-18T09:41:22.171Z,86.40
2019-02-18T09:43:50.583Z,86.60
2019-02-18T09:46:18.989Z,85.00
2019-02-18T09:48:47.395Z,83.80
2019-02-18T09:51:15.800Z,83.40
2019-02-18T09:53:44.208Z,82.50
2019-02-18T09:56:12.607Z,82.80
2019-02-18T09:58:41.024Z,81.50
2019-02-18T10:01:09.419Z,80.50
2019-02-18T10:03:37.845Z,80.40
2019-02-18T10:06:06.237Z,80.40
2019-02-18T10:08:34.638Z,79.60
2019-02-18T10:11:03.053Z,77.50
2019-02-18T10:13:31.447Z,76.80
2019-02-18T10:15:59.859Z,75.20
2019-02-18T10:18:28.286Z,74.90
2019-02-18T10:20:56.692Z,74.50
2019-02-18T10:23:25.177Z,73.10
2019-02-18T10:25:53.603Z,71.30
2019-02-18T10:28:22.002Z,71.00
2019-02-18T10:30:50.418Z,68.60
2019-02-18T10:33:18.820Z,67.20
2019-02-18T10:35:47.217Z,64.10
2019-02-18T10:38:15.610Z,63.10
2019-02-18T10:40:44.100Z,63.70
2019-02-18T10:43:12.507Z,61.80
2019-02-18T10:45:40.956Z,60.40
2019-02-18T10:48:09.402Z,62.10
2019-02-18T10:50:37.816Z,60.30
2019-02-18T10:53:06.206Z,60.40
2019-02-18T10:55:34.638Z,60.80
2019-02-18T10:58:03.022Z,60.60
2019-02-18T11:00:31.429Z,60.20
2019-02-18T11:02:59.845Z,58.90
2019-02-18T11:05:28.263Z,58.80
2019-02-18T11:07:57.086Z,57.80
2019-02-18T11:10:25.572Z,56.50
2019-02-18T11:12:53.967Z,56.20
2019-02-18T11:15:22.409Z,56.10
2019-02-18T11:17:50.803Z,55.80
2019-02-18T11:20:19.232Z,55.40
2019-02-18T11:22:47.641Z,56.10
2019-02-18T11:25:16.126Z,56.40
2019-02-18T11:27:44.522Z,56.40
2019-02-18T11:30:17.095Z,55.70
2019-02-18T11:32:45.555Z,54.60
2019-02-18T11:35:14.043Z,54.60
2019-02-18T11:37:42.460Z,53.40
2019-02-18T11:40:13.588Z,52.10
2019-02-18T11:42:41.991Z,51.90
2019-02-18T11:45:12.852Z,51.80
2019-02-18T11:47:41.311Z,51.60
2019-02-18T11:50:11.672Z,51.20
2019-02-18T11:52:40.075Z,51.70
2019-02-18T11:55:12.520Z,51.80
2019-02-18T11:57:41.391Z,50.50
2019-02-18T12:00:12.886Z,48.90
2019-02-18T12:02:41.352Z,48.00
2019-02-18T12:05:11.100Z,46.70
2019-02-18T12:07:39.581Z,44.60
2019-02-18T12:10:12.617Z,44.80
2019-02-18T12:12:41.383Z,42.10
2019-02-18T12:15:14.357Z,42.40
2019-02-18T12:17:42.765Z,42.90
2019-02-18T12:20:13.393Z,44.20
2019-02-18T12:22:41.867Z,44.50
2019-02-18T12:25:11.118Z,46.00
2019-02-18T12:27:39.899Z,46.70
2019-02-18T12:30:11.622Z,46.20
2019-02-18T12:32:40.099Z,45.90
2019-02-18T12:35:08.766Z,45.50
2019-02-18T12:37:37.186Z,44.50
2019-02-18T12:40:08.436Z,44.80
2019-02-18T12:42:37.115Z,44.50
2019-02-18T12:45:08.474Z,44.80
2019-02-18T12:47:37.218Z,45.20
2019-02-18T12:50:07.339Z,44.90
2019-02-18T12:52:35.835Z,44.30
2019-02-18T12:55:05.717Z,44.40
2019-02-18T12:57:34.504Z,44.40
2019-02-18T13:00:03.347Z,44.10
2019-02-18T13:02:31.977Z,43.80
2019-02-18T13:05:00.466Z,42.80
2019-02-18T13:07:28.998Z,43.30
2019-02-18T13:09:57.513Z,42.90
2019-02-18T13:12:26.055Z,43.70
2019-02-18T13:14:54.536Z,43.30
2019-02-18T13:17:23.231Z,43.60
2019-02-18T13:19:51.646Z,42.40
2019-02-18T13:22:20.059Z,42.60
2019-02-18T13:24:48.521Z,42.60
2019-02-18T13:27:16.948Z,42.60
2019-02-18T13:29:45.339Z,41.80
2019-02-18T13:32:13.817Z,41.40
2019-02-18T13:34:42.608Z,41.20
2019-02-18T13:37:12.918Z,41.60
2019-02-18T13:39:41.319Z,41.60
2019-02-18T13:42:09.747Z,41.40
2019-02-18T13:44:38.147Z,41.00
2019-02-18T13:47:06.622Z,40.90
2019-02-18T13:49:35.473Z,41.00
2019-02-18T13:52:04.154Z,40.30
2019-02-18T13:54:32.550Z,40.10
2019-02-18T13:57:00.954Z,39.80
2019-02-18T13:59:29.376Z,39.40
2019-02-18T14:01:57.787Z,39.20
2019-02-18T14:04:26.195Z,39.70
2019-02-18T14:06:54.988Z,40.00
2019-02-18T14:09:23.391Z,39.20
2019-02-18T14:11:51.793Z,38.70
2019-02-18T14:14:20.200Z,38.70
2019-02-18T14:16:48.624Z,38.50
2019-02-18T14:19:17.016Z,39.00
2019-02-18T14:21:45.817Z,38.40
2019-02-18T14:24:14.205Z,38.00
2019-02-18T14:26:42.623Z,38.30
2019-02-18T14:29:11.009Z,38.30
2019-02-18T14:31:39.418Z,38.20
2019-02-18T14:34:07.836Z,37.90
2019-02-18T14:36:36.256Z,38.10
2019-02-18T14:39:08.538Z,37.50
2019-02-18T14:41:36.942Z,37.10
2019-02-18T14:44:05.414Z,37.50
2019-02-18T14:46:33.823Z,37.00
2019-02-18T14:49:02.223Z,36.90
2019-02-18T14:51:30.639Z,36.40
2019-02-18T14:53:59.315Z,36.60
2019-02-18T14:56:27.747Z,37.00
2019-02-18T14:58:56.149Z,36.70
2019-02-18T15:01:24.564Z,36.40
2019-02-18T15:03:53.020Z,36.20
2019-02-18T15:06:21.505Z,36.40
2019-02-18T15:08:50.278Z,35.60
2019-02-18T15:11:18.696Z,35.00
2019-02-18T15:13:47.105Z,34.80
2019-02-18T15:16:15.520Z,34.10
2019-02-18T15:18:43.901Z,34.60
2019-02-18T15:21:12.383Z,35.30
2019-02-18T15:23:40.769Z,35.10
2019-02-18T15:26:09.235Z,34.40
2019-02-18T15:28:37.665Z,35.20
2019-02-18T15:31:06.123Z,35.00
2019-02-18T15:33:34.521Z,35.10
2019-02-18T15:36:02.927Z,36.00
2019-02-18T15:38:31.342Z,35.40
2019-02-18T15:41:00.176Z,35.80
2019-02-18T15:43:28.672Z,35.10
2019-02-18T15:45:57.145Z,36.00
2019-02-18T15:48:25.569Z,35.80
2019-02-18T15:50:53.968Z,36.30
2019-02-18T15:53:22.375Z,37.70
2019-02-18T15:55:50.775Z,36.80
2019-02-18T15:58:19.193Z,37.80
2019-02-18T16:00:47.577Z,38.80
2019-02-18T16:03:15.978Z,39.50
2019-02-18T16:05:44.380Z,39.20
2019-02-18T16:08:12.801Z,39.90
2019-02-18T16:10:41.203Z,41.40
2019-02-18T16:13:09.801Z,42.30
2019-02-18T16:15:38.210Z,42.50
2019-02-18T16:18:06.621Z,43.50
2019-02-18T16:20:35.099Z,44.80
2019-02-18T16:23:03.526Z,45.60
2019-02-18T16:25:32.004Z,45.80
2019-02-18T16:28:00.414Z,46.40
2019-02-18T16:30:28.825Z,46.30
2019-02-18T16:32:57.240Z,46.50
2019-02-18T16:35:26.011Z,47.00
2019-02-18T16:37:54.678Z,48.00
2019-02-18T16:40:23.469Z,48.90
2019-02-18T16:42:59.109Z,50.40
2019-02-18T16:45:22.088Z,51.40
2019-02-18T16:47:50.504Z,52.00
2019-02-18T16:50:18.890Z,52.50
2019-02-18T16:52:47.307Z,53.00
2019-02-18T16:55:16.223Z,53.20
2019-02-18T16:57:44.791Z,53.80
2019-02-18T17:00:25.979Z,54.00
2019-02-18T17:02:54.541Z,54.50
2019-02-18T17:05:22.936Z,55.30
2019-02-18T17:07:52.136Z,55.30
2019-02-18T17:10:20.779Z,55.70
2019-02-18T17:12:49.660Z,56.00
2019-02-18T17:15:18.148Z,58.50
2019-02-18T17:17:46.630Z,57.20
2019-02-18T17:20:15.069Z,56.90
2019-02-18T17:22:43.489Z,57.00
2019-02-18T17:25:13.119Z,58.20
2019-02-18T17:27:41.727Z,57.10
2019-02-18T17:30:14.510Z,57.60
2019-02-18T17:32:43.069Z,57.80
2019-02-18T17:35:12.895Z,57.80
2019-02-18T17:37:41.619Z,58.70
2019-02-18T17:40:13.571Z,58.80
2019-02-18T17:42:42.330Z,59.00
2019-02-18T17:45:13.364Z,59.40
2019-02-18T17:47:41.883Z,59.70
2019-02-18T17:50:17.367Z,59.60
2019-02-18T17:52:46.455Z,60.80
2019-02-18T17:55:16.607Z,61.20
2019-02-18T17:57:45.101Z,61.20
2019-02-18T18:00:21.523Z,62.30
2019-02-18T18:02:50.098Z,63.00
2019-02-18T18:05:18.588Z,63.60
2019-02-18T18:07:47.063Z,63.70
2019-02-18T18:10:15.980Z,63.70
2019-02-18T18:12:44.391Z,63.70
2019-02-18T18:15:14.925Z,63.90
2019-02-18T18:17:43.341Z,64.80
2019-02-18T18:20:12.951Z,65.30
2019-02-18T18:22:41.441Z,65.70
2019-02-18T18:25:12.030Z,65.90
2019-02-18T18:27:40.419Z,66.20
2019-02-18T18:30:11.359Z,66.60
2019-02-18T18:32:39.798Z,67.60
2019-02-18T18:35:10.819Z,68.60
2019-02-18T18:37:39.338Z,69.60
2019-02-18T18:40:15.086Z,70.40
2019-02-18T18:42:43.531Z,70.70
2019-02-18T18:45:15.749Z,71.30
2019-02-18T18:47:44.281Z,71.40
2019-02-18T18:50:17.583Z,72.20
2019-02-18T18:52:46.165Z,73.10
2019-02-18T18:55:14.653Z,74.00
2019-02-18T18:57:43.043Z,74.10
2019-02-18T19:00:18.803Z,74.60
2019-02-18T19:02:47.209Z,75.10
2019-02-18T19:05:15.622Z,76.00
2019-02-18T19:07:44.028Z,76.20
2019-02-18T19:10:12.437Z,77.40
2019-02-18T19:12:40.822Z,79.30
2019-02-18T19:15:11.943Z,80.50
2019-02-18T19:17:40.337Z,81.50
2019-02-18T19:20:11.554Z,81.80
2019-02-18T19:22:40.072Z,83.10
2019-02-18T19:25:12.690Z,83.80
2019-02-18T19:27:41.240Z,84.20
2019-02-18T19:30:21.739Z,85.10
2019-02-18T19:32:50.520Z,85.50
2019-02-18T19:35:18.933Z,86.70
2019-02-18T19:37:47.319Z,87.70
2019-02-18T19:40:15.738Z,88.20
2019-02-18T19:42:44.144Z,88.70
2019-02-18T19:45:23.635Z,89.20
2019-02-18T19:47:52.070Z,90.00
2019-02-18T19:50:20.496Z,90.50
2019-02-18T19:52:48.897Z,90.90
2019-02-18T19:55:17.295Z,91.30
2019-02-18T19:57:45.689Z,91.50
2019-02-18T20:00:19.185Z,91.50
2019-02-18T20:02:47.943Z,91.40
2019-02-18T20:05:16.415Z,91.40
2019-02-18T20:07:44.838Z,92.00
2019-02-18T20:10:13.481Z,92.40
2019-02-18T20:12:41.891Z,92.40
2019-02-18T20:15:14.848Z,92.60
2019-02-18T20:17:43.301Z,92.80
2019-02-18T20:20:16.323Z,92.90
2019-02-18T20:22:44.727Z,93.10
2019-02-18T20:25:13.275Z,93.30
2019-02-18T20:27:41.819Z,93.60
2019-02-18T20:30:14.414Z,93.60
2019-02-18T20:32:42.830Z,94.10
2019-02-18T20:35:11.707Z,94.40
2019-02-18T20:37:40.191Z,94.60
2019-02-18T20:40:09.963Z,95.00
2019-02-18T20:42:38.805Z,95.10
2019-02-18T20:45:10.167Z,95.40
2019-02-18T20:47:38.571Z,95.50
2019-02-18T20:50:09.627Z,95.50
2019-02-18T20:52:38.031Z,95.70
2019-02-18T20:55:09.056Z,95.80
2019-02-18T20:57:37.631Z,96.00
2019-02-18T21:00:10.729Z,96.00
2019-02-18T21:02:39.134Z,96.50
2019-02-18T21:05:07.968Z,96.50
2019-02-18T21:07:36.385Z,96.80
2019-02-18T21:10:07.697Z,97.10
2019-02-18T21:12:36.116Z,97.50
2019-02-18T21:15:05.060Z,97.60
2019-02-18T21:17:33.728Z,97.80
2019-02-18T21:20:02.130Z,97.80
2019-02-18T21:22:30.526Z,98.00
2019-02-18T21:24:58.943Z,98.00
2019-02-18T21:27:27.348Z,97.90
2019-02-18T21:29:55.759Z,98.10
2019-02-18T21:32:24.161Z,98.20
2019-02-18T21:34:52.554Z,98.40
2019-02-18T21:37:20.965Z,98.60
2019-02-18T21:39:49.354Z,98.50
2019-02-18T21:42:18.506Z,98.60
2019-02-18T21:44:46.915Z,98.80
2019-02-18T21:47:15.337Z,98.80
2019-02-18T21:49:43.725Z,99.30
2019-02-18T21:52:12.136Z,99.40
2019-02-18T21:54:40.521Z,99.40
2019-02-18T21:57:08.925Z,99.40
2019-02-18T21:59:37.335Z,99.50
2019-02-18T22:02:05.805Z,99.60
2019-02-18T22:04:34.211Z,99.60
2019-02-18T22:07:02.627Z,99.90
2019-02-18T22:09:31.031Z,99.90
2019-02-18T22:11:59.451Z,99.90
2019-02-18T22:14:33.423Z,99.90
2019-02-18T22:16:58.456Z,99.90
2019-02-18T22:19:26.865Z,99.90
2019-02-18T22:21:55.274Z,99.90
2019-02-18T22:24:23.677Z,99.80
2019-02-18T22:26:52.077Z,99.90
2019-02-18T22:29:20.474Z,99.90
2019-02-18T22:31:49.269Z,99.90
2019-02-18T22:34:17.671Z,99.90
2019-02-18T22:36:46.096Z,99.90
2019-02-18T22:39:14.491Z,99.90
2019-02-18T22:41:42.900Z,99.90
2019-02-18T22:44:11.295Z,99.90
2019-02-18T22:46:39.709Z,99.90
2019-02-18T22:49:08.387Z,99.90
2019-02-18T22:51:36.802Z,99.90
2019-02-18T22:54:05.210Z,99.90
2019-02-18T22:56:33.624Z,99.90
2019-02-18T22:59:02.024Z,99.90
2019-02-18T23:01:30.434Z,99.90
2019-02-18T23:03:58.834Z,99.90
2019-02-18T23:06:27.253Z,99.90
2019-02-18T23:08:55.665Z,99.90
2019-02-18T23:11:24.092Z,99.90
2019-02-18T23:13:52.483Z,99.90
2019-02-18T23:16:20.915Z,99.90
2019-02-18T23:18:49.465Z,99.90
2019-02-18T23:21:17.883Z,99.90
2019-02-18T23:23:46.297Z,99.90
2019-02-18T23:26:14.702Z,99.90
2019-02-18T23:28:43.176Z,99.90
2019-02-18T23:31:11.596Z,99.90
2019-02-18T23:33:40.003Z,99.90
2019-02-18T23:36:08.427Z,99.90
2019-02-18T23:38:36.814Z,99.90
2019-02-18T23:41:05.217Z,99.90
2019-02-18T23:43:33.626Z,99.90
2019-02-18T23:46:02.035Z,99.90
2019-02-18T23:48:30.449Z,99.90
2019-02-18T23:50:58.864Z,99.90
2019-02-18T23:53:27.330Z,99.90
2019-02-18T23:55:55.749Z,99.90
2019-02-18T23:58:24.167Z,99.90
